sensor_id;sensor_type;location;lat;lon;timestamp;temperature;humidity
32446;DHT22;18899;50.748;7.102;2022-12-08T00:02:16;5.60;99.90
32446;DHT22;18899;50.748;7.102;2022-12-08T00:04:42;5.60;99.90
32446;DHT22;18899;50.748;7.102;2022-12-08T00:07:26;5.60;99.90
32446;DHT22;18899;50.748;7.102;2022-12-08T00:10:10;5.70;99.90
32446;DHT22;18899;50.748;7.102;2022-12-08T00:12:36;5.90;99.90
32446;DHT22;18899;50.748;7.102;2022-12-08T00:15:01;5.80;99.90
32446;DHT22;18899;50.748;7.102;2022-12-08T00:17:27;5.90;99.90
32446;DHT22;18899;50.748;7.102;2022-12-08T00:19:52;5.90;99.90
32446;DHT22;18899;50.748;7.102;2022-12-08T00:22:18;6.10;99.90
32446;DHT22;18899;50.748;7.102;2022-12-08T00:24:43;6.10;99.90
32446;DHT22;18899;50.748;7.102;2022-12-08T00:27:12;6.20;99.90
32446;DHT22;18899;50.748;7.102;2022-12-08T00:29:38;6.10;99.90
32446;DHT22;18899;50.748;7.102;2022-12-08T00:32:05;6.00;99.90
32446;DHT22;18899;50.748;7.102;2022-12-08T00:34:31;6.00;99.90
32446;DHT22;18899;50.748;7.102;2022-12-08T00:36:57;6.10;99.90
32446;DHT22;18899;50.748;7.102;2022-12-08T00:39:23;6.10;99.90
32446;DHT22;18899;50.748;7.102;2022-12-08T00:41:48;6.30;99.90
32446;DHT22;18899;50.748;7.102;2022-12-08T00:44:33;6.20;99.90
32446;DHT22;18899;50.748;7.102;2022-12-08T00:46:58;6.00;99.90
32446;DHT22;18899;50.748;7.102;2022-12-08T00:49:24;6.00;99.90
32446;DHT22;18899;50.748;7.102;2022-12-08T00:51:49;6.00;99.90
32446;DHT22;18899;50.748;7.102;2022-12-08T00:54:16;6.00;99.90
32446;DHT22;18899;50.748;7.102;2022-12-08T00:56:41;6.10;99.90
32446;DHT22;18899;50.748;7.102;2022-12-08T00:59:07;6.10;99.90
32446;DHT22;18899;50.748;7.102;2022-12-08T01:01:33;6.10;99.90
32446;DHT22;18899;50.748;7.102;2022-12-08T01:04:07;6.10;99.90
32446;DHT22;18899;50.748;7.102;2022-12-08T01:06:35;6.10;99.90
32446;DHT22;18899;50.748;7.102;2022-12-08T01:09:04;6.10;99.90
32446;DHT22;18899;50.748;7.102;2022-12-08T01:11:29;5.90;99.90
32446;DHT22;18899;50.748;7.102;2022-12-08T01:13:55;5.80;99.90
32446;DHT22;18899;50.748;7.102;2022-12-08T01:16:24;5.70;99.90
32446;DHT22;18899;50.748;7.102;2022-12-08T01:18:49;5.60;99.90
32446;DHT22;18899;50.748;7.102;2022-12-08T01:21:15;5.60;99.90
32446;DHT22;18899;50.748;7.102;2022-12-08T01:23:41;5.50;99.90
32446;DHT22;18899;50.748;7.102;2022-12-08T01:26:08;5.50;99.90
32446;DHT22;18899;50.748;7.102;2022-12-08T01:28:38;5.50;99.90
32446;DHT22;18899;50.748;7.102;2022-12-08T01:31:03;5.40;99.90
32446;DHT22;18899;50.748;7.102;2022-12-08T01:33:29;5.40;99.90
32446;DHT22;18899;50.748;7.102;2022-12-08T01:35:55;5.50;99.90
32446;DHT22;18899;50.748;7.102;2022-12-08T01:38:21;5.60;99.90
32446;DHT22;18899;50.748;7.102;2022-12-08T01:40:47;5.60;99.90
32446;DHT22;18899;50.748;7.102;2022-12-08T01:43:18;5.50;99.90
32446;DHT22;18899;50.748;7.102;2022-12-08T01:45:44;5.50;99.90
32446;DHT22;18899;50.748;7.102;2022-12-08T01:48:23;5.50;99.90
32446;DHT22;18899;50.748;7.102;2022-12-08T01:50:50;5.50;99.90
32446;DHT22;18899;50.748;7.102;2022-12-08T01:53:22;5.60;99.90
32446;DHT22;18899;50.748;7.102;2022-12-08T01:55:52;5.80;99.90
32446;DHT22;18899;50.748;7.102;2022-12-08T02:00:48;6.20;99.90
32446;DHT22;18899;50.748;7.102;2022-12-08T02:03:24;6.20;99.90
32446;DHT22;18899;50.748;7.102;2022-12-08T02:05:51;6.20;99.90
32446;DHT22;18899;50.748;7.102;2022-12-08T02:08:17;6.40;99.90
32446;DHT22;18899;50.748;7.102;2022-12-08T02:10:43;6.50;99.90
32446;DHT22;18899;50.748;7.102;2022-12-08T02:13:12;6.70;99.90
32446;DHT22;18899;50.748;7.102;2022-12-08T02:15:57;6.70;99.90
32446;DHT22;18899;50.748;7.102;2022-12-08T02:24:02;6.80;99.90
32446;DHT22;18899;50.748;7.102;2022-12-08T02:35:13;6.90;99.90
32446;DHT22;18899;50.748;7.102;2022-12-08T02:37:47;6.70;99.90
32446;DHT22;18899;50.748;7.102;2022-12-08T02:40:35;6.80;99.90
32446;DHT22;18899;50.748;7.102;2022-12-08T02:43:08;6.60;99.90
32446;DHT22;18899;50.748;7.102;2022-12-08T02:45:47;6.70;99.90
32446;DHT22;18899;50.748;7.102;2022-12-08T02:48:14;6.90;99.90
32446;DHT22;18899;50.748;7.102;2022-12-08T02:50:40;6.80;99.90
32446;DHT22;18899;50.748;7.102;2022-12-08T02:53:06;6.70;99.90
32446;DHT22;18899;50.748;7.102;2022-12-08T02:58:39;6.60;99.90
32446;DHT22;18899;50.748;7.102;2022-12-08T03:11:36;6.30;99.90
32446;DHT22;18899;50.748;7.102;2022-12-08T03:14:06;6.20;99.90
32446;DHT22;18899;50.748;7.102;2022-12-08T03:16:34;6.40;99.90
32446;DHT22;18899;50.748;7.102;2022-12-08T03:19:13;6.30;99.90
32446;DHT22;18899;50.748;7.102;2022-12-08T03:21:43;6.30;99.90
32446;DHT22;18899;50.748;7.102;2022-12-08T03:24:10;6.60;99.90
32446;DHT22;18899;50.748;7.102;2022-12-08T03:26:54;6.70;99.90
32446;DHT22;18899;50.748;7.102;2022-12-08T03:29:22;6.70;99.90
32446;DHT22;18899;50.748;7.102;2022-12-08T03:31:57;6.70;99.90
32446;DHT22;18899;50.748;7.102;2022-12-08T03:34:27;6.80;99.90
32446;DHT22;18899;50.748;7.102;2022-12-08T03:36:54;6.90;99.90
32446;DHT22;18899;50.748;7.102;2022-12-08T03:39:19;6.80;99.90
32446;DHT22;18899;50.748;7.102;2022-12-08T03:41:46;6.70;99.90
32446;DHT22;18899;50.748;7.102;2022-12-08T03:44:12;6.60;99.90
32446;DHT22;18899;50.748;7.102;2022-12-08T03:46:37;6.50;99.90
32446;DHT22;18899;50.748;7.102;2022-12-08T03:49:03;6.70;99.90
32446;DHT22;18899;50.748;7.102;2022-12-08T03:51:29;6.60;99.90
32446;DHT22;18899;50.748;7.102;2022-12-08T03:53:54;6.50;99.90
32446;DHT22;18899;50.748;7.102;2022-12-08T03:56:27;6.40;99.90
32446;DHT22;18899;50.748;7.102;2022-12-08T03:58:54;6.40;99.90
32446;DHT22;18899;50.748;7.102;2022-12-08T04:01:21;6.30;99.90
32446;DHT22;18899;50.748;7.102;2022-12-08T04:03:47;6.10;99.90
32446;DHT22;18899;50.748;7.102;2022-12-08T04:06:13;6.00;99.90
32446;DHT22;18899;50.748;7.102;2022-12-08T04:08:39;6.00;99.90
32446;DHT22;18899;50.748;7.102;2022-12-08T04:11:05;5.90;99.90
32446;DHT22;18899;50.748;7.102;2022-12-08T04:13:35;5.90;99.90
32446;DHT22;18899;50.748;7.102;2022-12-08T04:16:00;5.80;99.90
32446;DHT22;18899;50.748;7.102;2022-12-08T04:18:26;5.70;99.90
32446;DHT22;18899;50.748;7.102;2022-12-08T04:20:52;5.70;99.90
32446;DHT22;18899;50.748;7.102;2022-12-08T04:23:17;5.60;99.90
32446;DHT22;18899;50.748;7.102;2022-12-08T04:25:43;5.60;99.90
32446;DHT22;18899;50.748;7.102;2022-12-08T04:28:08;5.70;99.90
32446;DHT22;18899;50.748;7.102;2022-12-08T04:30:34;5.70;99.90
32446;DHT22;18899;50.748;7.102;2022-12-08T04:33:00;5.70;99.90
32446;DHT22;18899;50.748;7.102;2022-12-08T04:35:25;5.60;99.90
32446;DHT22;18899;50.748;7.102;2022-12-08T04:37:51;5.50;99.90
32446;DHT22;18899;50.748;7.102;2022-12-08T04:40:17;5.50;99.90
32446;DHT22;18899;50.748;7.102;2022-12-08T04:42:43;5.50;99.90
32446;DHT22;18899;50.748;7.102;2022-12-08T04:45:09;5.50;99.90
32446;DHT22;18899;50.748;7.102;2022-12-08T04:47:35;5.60;99.90
32446;DHT22;18899;50.748;7.102;2022-12-08T04:50:01;5.60;99.90
32446;DHT22;18899;50.748;7.102;2022-12-08T04:52:26;5.60;99.90
32446;DHT22;18899;50.748;7.102;2022-12-08T04:54:52;5.70;99.90
32446;DHT22;18899;50.748;7.102;2022-12-08T04:57:18;5.80;99.90
32446;DHT22;18899;50.748;7.102;2022-12-08T04:59:44;5.70;99.90
32446;DHT22;18899;50.748;7.102;2022-12-08T05:02:09;5.70;99.90
32446;DHT22;18899;50.748;7.102;2022-12-08T05:04:34;5.70;99.90
32446;DHT22;18899;50.748;7.102;2022-12-08T05:07:00;5.80;99.90
32446;DHT22;18899;50.748;7.102;2022-12-08T05:09:26;6.10;99.90
32446;DHT22;18899;50.748;7.102;2022-12-08T05:11:52;6.30;99.90
32446;DHT22;18899;50.748;7.102;2022-12-08T05:14:18;6.40;99.90
32446;DHT22;18899;50.748;7.102;2022-12-08T05:16:45;6.50;99.90
32446;DHT22;18899;50.748;7.102;2022-12-08T05:19:11;6.30;99.90
32446;DHT22;18899;50.748;7.102;2022-12-08T05:21:40;6.40;99.90
32446;DHT22;18899;50.748;7.102;2022-12-08T05:24:06;6.20;99.90
32446;DHT22;18899;50.748;7.102;2022-12-08T05:26:32;5.90;99.90
32446;DHT22;18899;50.748;7.102;2022-12-08T05:28:57;5.80;99.90
32446;DHT22;18899;50.748;7.102;2022-12-08T05:31:23;5.70;99.90
32446;DHT22;18899;50.748;7.102;2022-12-08T05:33:50;5.70;99.90
32446;DHT22;18899;50.748;7.102;2022-12-08T05:36:17;5.70;99.90
32446;DHT22;18899;50.748;7.102;2022-12-08T05:38:43;5.60;99.90
32446;DHT22;18899;50.748;7.102;2022-12-08T05:41:13;5.70;99.90
32446;DHT22;18899;50.748;7.102;2022-12-08T05:43:38;5.70;99.90
32446;DHT22;18899;50.748;7.102;2022-12-08T05:46:04;5.70;99.90
32446;DHT22;18899;50.748;7.102;2022-12-08T05:48:30;5.70;99.90
32446;DHT22;18899;50.748;7.102;2022-12-08T05:50:56;5.70;99.90
32446;DHT22;18899;50.748;7.102;2022-12-08T05:53:22;5.60;99.90
32446;DHT22;18899;50.748;7.102;2022-12-08T05:55:47;5.70;99.90
32446;DHT22;18899;50.748;7.102;2022-12-08T05:58:15;5.60;99.90
32446;DHT22;18899;50.748;7.102;2022-12-08T06:00:41;5.70;99.90
32446;DHT22;18899;50.748;7.102;2022-12-08T06:03:07;5.70;99.90
32446;DHT22;18899;50.748;7.102;2022-12-08T06:05:34;5.60;99.90
32446;DHT22;18899;50.748;7.102;2022-12-08T06:08:00;5.60;99.90
32446;DHT22;18899;50.748;7.102;2022-12-08T06:10:25;5.90;99.90
32446;DHT22;18899;50.748;7.102;2022-12-08T06:12:51;5.90;99.90
32446;DHT22;18899;50.748;7.102;2022-12-08T06:15:16;6.00;99.90
32446;DHT22;18899;50.748;7.102;2022-12-08T06:17:42;5.90;99.90
32446;DHT22;18899;50.748;7.102;2022-12-08T06:20:08;6.00;99.90
32446;DHT22;18899;50.748;7.102;2022-12-08T06:22:34;6.00;99.90
32446;DHT22;18899;50.748;7.102;2022-12-08T06:24:59;6.30;99.90
32446;DHT22;18899;50.748;7.102;2022-12-08T06:27:25;6.40;99.90
32446;DHT22;18899;50.748;7.102;2022-12-08T06:29:50;6.30;99.90
32446;DHT22;18899;50.748;7.102;2022-12-08T06:32:16;6.50;99.90
32446;DHT22;18899;50.748;7.102;2022-12-08T06:34:42;6.40;99.90
32446;DHT22;18899;50.748;7.102;2022-12-08T06:37:07;6.50;99.90
32446;DHT22;18899;50.748;7.102;2022-12-08T06:39:33;6.50;99.90
32446;DHT22;18899;50.748;7.102;2022-12-08T06:41:58;6.50;99.90
32446;DHT22;18899;50.748;7.102;2022-12-08T06:44:42;6.40;99.90
32446;DHT22;18899;50.748;7.102;2022-12-08T06:47:08;6.30;99.90
32446;DHT22;18899;50.748;7.102;2022-12-08T06:49:33;6.20;99.90
32446;DHT22;18899;50.748;7.102;2022-12-08T06:51:59;6.20;99.90
32446;DHT22;18899;50.748;7.102;2022-12-08T06:54:25;6.00;99.90
32446;DHT22;18899;50.748;7.102;2022-12-08T06:56:50;6.10;99.90
32446;DHT22;18899;50.748;7.102;2022-12-08T06:59:16;6.20;99.90
32446;DHT22;18899;50.748;7.102;2022-12-08T07:01:44;6.20;99.90
32446;DHT22;18899;50.748;7.102;2022-12-08T07:04:10;6.10;99.90
32446;DHT22;18899;50.748;7.102;2022-12-08T07:06:35;6.10;99.90
32446;DHT22;18899;50.748;7.102;2022-12-08T07:09:01;6.10;99.90
32446;DHT22;18899;50.748;7.102;2022-12-08T07:11:26;6.00;99.90
32446;DHT22;18899;50.748;7.102;2022-12-08T07:13:54;5.90;99.90
32446;DHT22;18899;50.748;7.102;2022-12-08T07:16:20;6.00;99.90
32446;DHT22;18899;50.748;7.102;2022-12-08T07:18:46;6.00;99.90
32446;DHT22;18899;50.748;7.102;2022-12-08T07:21:12;5.90;99.90
32446;DHT22;18899;50.748;7.102;2022-12-08T07:23:39;5.80;99.90
32446;DHT22;18899;50.748;7.102;2022-12-08T07:26:07;5.80;99.90
32446;DHT22;18899;50.748;7.102;2022-12-08T07:28:35;5.80;99.90
32446;DHT22;18899;50.748;7.102;2022-12-08T07:31:01;5.70;99.90
32446;DHT22;18899;50.748;7.102;2022-12-08T07:33:27;5.70;99.90
32446;DHT22;18899;50.748;7.102;2022-12-08T07:35:54;5.80;99.90
32446;DHT22;18899;50.748;7.102;2022-12-08T07:38:20;5.80;99.90
32446;DHT22;18899;50.748;7.102;2022-12-08T07:40:45;5.80;99.90
32446;DHT22;18899;50.748;7.102;2022-12-08T07:43:11;5.90;99.90
32446;DHT22;18899;50.748;7.102;2022-12-08T07:45:36;5.90;99.90
32446;DHT22;18899;50.748;7.102;2022-12-08T07:48:02;6.10;99.90
32446;DHT22;18899;50.748;7.102;2022-12-08T07:50:27;6.10;99.90
32446;DHT22;18899;50.748;7.102;2022-12-08T07:52:53;6.20;99.90
32446;DHT22;18899;50.748;7.102;2022-12-08T07:55:18;6.10;99.90
32446;DHT22;18899;50.748;7.102;2022-12-08T07:57:44;6.10;99.90
32446;DHT22;18899;50.748;7.102;2022-12-08T08:00:10;6.20;99.90
32446;DHT22;18899;50.748;7.102;2022-12-08T08:02:35;6.20;99.90
32446;DHT22;18899;50.748;7.102;2022-12-08T08:05:01;6.20;99.90
32446;DHT22;18899;50.748;7.102;2022-12-08T08:07:29;6.30;99.90
32446;DHT22;18899;50.748;7.102;2022-12-08T08:09:55;6.40;99.90
32446;DHT22;18899;50.748;7.102;2022-12-08T08:12:20;6.60;99.90
32446;DHT22;18899;50.748;7.102;2022-12-08T08:14:46;6.60;99.90
32446;DHT22;18899;50.748;7.102;2022-12-08T08:17:12;6.50;99.90
32446;DHT22;18899;50.748;7.102;2022-12-08T08:19:37;6.40;99.90
32446;DHT22;18899;50.748;7.102;2022-12-08T08:22:03;6.50;99.90
32446;DHT22;18899;50.748;7.102;2022-12-08T08:24:28;6.40;99.90
32446;DHT22;18899;50.748;7.102;2022-12-08T08:26:54;6.40;99.90
32446;DHT22;18899;50.748;7.102;2022-12-08T08:29:20;6.60;99.90
32446;DHT22;18899;50.748;7.102;2022-12-08T08:31:46;6.70;99.90
32446;DHT22;18899;50.748;7.102;2022-12-08T08:34:12;6.60;99.90
32446;DHT22;18899;50.748;7.102;2022-12-08T08:36:37;6.60;99.90
32446;DHT22;18899;50.748;7.102;2022-12-08T08:39:04;6.70;99.90
32446;DHT22;18899;50.748;7.102;2022-12-08T08:41:30;6.70;99.90
32446;DHT22;18899;50.748;7.102;2022-12-08T08:43:55;6.70;99.90
32446;DHT22;18899;50.748;7.102;2022-12-08T08:46:21;6.70;99.90
32446;DHT22;18899;50.748;7.102;2022-12-08T08:48:46;6.80;99.90
32446;DHT22;18899;50.748;7.102;2022-12-08T08:51:13;7.00;99.90
32446;DHT22;18899;50.748;7.102;2022-12-08T08:53:39;7.00;99.90
32446;DHT22;18899;50.748;7.102;2022-12-08T08:56:10;7.10;99.90
32446;DHT22;18899;50.748;7.102;2022-12-08T08:58:35;7.10;99.90
32446;DHT22;18899;50.748;7.102;2022-12-08T09:01:01;7.30;99.90
32446;DHT22;18899;50.748;7.102;2022-12-08T09:03:26;7.50;99.90
32446;DHT22;18899;50.748;7.102;2022-12-08T09:05:54;7.60;99.90
32446;DHT22;18899;50.748;7.102;2022-12-08T09:08:20;7.60;99.90
32446;DHT22;18899;50.748;7.102;2022-12-08T09:10:45;7.60;99.90
32446;DHT22;18899;50.748;7.102;2022-12-08T09:13:11;7.80;99.90
32446;DHT22;18899;50.748;7.102;2022-12-08T09:15:38;7.80;99.90
32446;DHT22;18899;50.748;7.102;2022-12-08T09:18:04;7.60;99.90
32446;DHT22;18899;50.748;7.102;2022-12-08T09:20:34;7.50;99.90
32446;DHT22;18899;50.748;7.102;2022-12-08T09:22:59;7.40;99.90
32446;DHT22;18899;50.748;7.102;2022-12-08T09:25:25;7.50;99.90
32446;DHT22;18899;50.748;7.102;2022-12-08T09:27:50;7.30;99.90
32446;DHT22;18899;50.748;7.102;2022-12-08T09:30:16;7.60;99.90
32446;DHT22;18899;50.748;7.102;2022-12-08T09:32:41;7.60;99.90
32446;DHT22;18899;50.748;7.102;2022-12-08T09:35:10;7.60;99.90
32446;DHT22;18899;50.748;7.102;2022-12-08T09:37:35;7.80;99.90
32446;DHT22;18899;50.748;7.102;2022-12-08T09:40:01;8.10;99.90
32446;DHT22;18899;50.748;7.102;2022-12-08T09:42:43;8.20;99.90
32446;DHT22;18899;50.748;7.102;2022-12-08T09:45:13;8.20;99.90
32446;DHT22;18899;50.748;7.102;2022-12-08T09:47:44;8.00;99.90
32446;DHT22;18899;50.748;7.102;2022-12-08T09:50:13;8.20;99.90
32446;DHT22;18899;50.748;7.102;2022-12-08T09:53:05;8.20;99.90
32446;DHT22;18899;50.748;7.102;2022-12-08T09:55:45;8.20;99.90
32446;DHT22;18899;50.748;7.102;2022-12-08T09:58:48;7.90;99.90
32446;DHT22;18899;50.748;7.102;2022-12-08T10:01:16;7.80;99.90
32446;DHT22;18899;50.748;7.102;2022-12-08T10:03:42;7.70;99.90
32446;DHT22;18899;50.748;7.102;2022-12-08T10:09:21;7.30;99.90
32446;DHT22;18899;50.748;7.102;2022-12-08T10:12:09;7.50;99.90
32446;DHT22;18899;50.748;7.102;2022-12-08T10:14:46;7.60;99.90
32446;DHT22;18899;50.748;7.102;2022-12-08T10:17:22;7.50;99.90
32446;DHT22;18899;50.748;7.102;2022-12-08T10:19:56;7.20;99.90
32446;DHT22;18899;50.748;7.102;2022-12-08T10:22:24;7.20;99.90
32446;DHT22;18899;50.748;7.102;2022-12-08T10:25:09;7.20;99.90
32446;DHT22;18899;50.748;7.102;2022-12-08T10:27:36;7.20;99.90
32446;DHT22;18899;50.748;7.102;2022-12-08T10:30:09;7.50;99.90
32446;DHT22;18899;50.748;7.102;2022-12-08T10:32:35;7.40;99.90
32446;DHT22;18899;50.748;7.102;2022-12-08T10:37:32;7.60;99.90
32446;DHT22;18899;50.748;7.102;2022-12-08T10:42:46;7.50;99.90
32446;DHT22;18899;50.748;7.102;2022-12-08T10:48:02;7.50;99.90
32446;DHT22;18899;50.748;7.102;2022-12-08T10:55:47;7.80;99.90
32446;DHT22;18899;50.748;7.102;2022-12-08T10:58:38;7.70;99.90
32446;DHT22;18899;50.748;7.102;2022-12-08T11:01:13;7.80;99.90
32446;DHT22;18899;50.748;7.102;2022-12-08T11:03:48;7.90;99.90
32446;DHT22;18899;50.748;7.102;2022-12-08T11:06:17;8.00;99.90
32446;DHT22;18899;50.748;7.102;2022-12-08T11:08:47;8.00;99.90
32446;DHT22;18899;50.748;7.102;2022-12-08T11:11:13;7.90;99.90
32446;DHT22;18899;50.748;7.102;2022-12-08T11:13:41;7.80;99.90
32446;DHT22;18899;50.748;7.102;2022-12-08T11:16:07;7.70;99.90
32446;DHT22;18899;50.748;7.102;2022-12-08T11:21:18;7.90;99.90
32446;DHT22;18899;50.748;7.102;2022-12-08T11:23:48;8.30;99.90
32446;DHT22;18899;50.748;7.102;2022-12-08T11:27:02;8.60;99.90
32446;DHT22;18899;50.748;7.102;2022-12-08T11:29:30;8.80;99.90
32446;DHT22;18899;50.748;7.102;2022-12-08T11:32:11;8.90;99.90
32446;DHT22;18899;50.748;7.102;2022-12-08T11:34:45;8.80;99.90
32446;DHT22;18899;50.748;7.102;2022-12-08T11:37:23;8.80;99.90
32446;DHT22;18899;50.748;7.102;2022-12-08T11:39:53;8.50;99.90
32446;DHT22;18899;50.748;7.102;2022-12-08T11:42:25;8.50;99.90
32446;DHT22;18899;50.748;7.102;2022-12-08T11:45:02;8.30;99.90
32446;DHT22;18899;50.748;7.102;2022-12-08T11:47:49;8.20;99.90
32446;DHT22;18899;50.748;7.102;2022-12-08T11:50:23;8.30;99.90
32446;DHT22;18899;50.748;7.102;2022-12-08T11:52:50;8.20;99.90
32446;DHT22;18899;50.748;7.102;2022-12-08T11:55:38;8.30;99.90
32446;DHT22;18899;50.748;7.102;2022-12-08T11:58:15;8.40;99.90
32446;DHT22;18899;50.748;7.102;2022-12-08T12:00:42;8.70;99.90
32446;DHT22;18899;50.748;7.102;2022-12-08T12:03:24;8.50;99.90
32446;DHT22;18899;50.748;7.102;2022-12-08T12:06:31;8.30;99.90
32446;DHT22;18899;50.748;7.102;2022-12-08T12:09:15;8.40;99.90
32446;DHT22;18899;50.748;7.102;2022-12-08T12:17:41;8.50;99.90
32446;DHT22;18899;50.748;7.102;2022-12-08T12:20:26;8.60;99.90
32446;DHT22;18899;50.748;7.102;2022-12-08T12:23:05;8.50;99.90
32446;DHT22;18899;50.748;7.102;2022-12-08T12:25:33;8.40;99.90
32446;DHT22;18899;50.748;7.102;2022-12-08T12:28:04;8.40;99.90
32446;DHT22;18899;50.748;7.102;2022-12-08T12:33:18;8.10;99.90
32446;DHT22;18899;50.748;7.102;2022-12-08T12:35:45;8.30;99.90
32446;DHT22;18899;50.748;7.102;2022-12-08T12:38:25;8.20;99.90
32446;DHT22;18899;50.748;7.102;2022-12-08T12:41:11;8.40;99.90
32446;DHT22;18899;50.748;7.102;2022-12-08T12:43:38;8.40;99.90
32446;DHT22;18899;50.748;7.102;2022-12-08T12:48:47;8.30;99.90
32446;DHT22;18899;50.748;7.102;2022-12-08T12:54:21;8.10;99.90
32446;DHT22;18899;50.748;7.102;2022-12-08T13:07:50;7.50;99.90
32446;DHT22;18899;50.748;7.102;2022-12-08T13:15:37;7.50;99.90
32446;DHT22;18899;50.748;7.102;2022-12-08T13:18:05;7.70;99.90
32446;DHT22;18899;50.748;7.102;2022-12-08T13:20:45;7.70;99.90
32446;DHT22;18899;50.748;7.102;2022-12-08T13:23:23;7.60;99.90
32446;DHT22;18899;50.748;7.102;2022-12-08T13:25:51;7.50;99.90
32446;DHT22;18899;50.748;7.102;2022-12-08T13:30:57;7.70;99.90
32446;DHT22;18899;50.748;7.102;2022-12-08T13:33:29;7.70;99.90
32446;DHT22;18899;50.748;7.102;2022-12-08T13:36:04;7.60;99.90
32446;DHT22;18899;50.748;7.102;2022-12-08T13:38:34;7.60;99.90
32446;DHT22;18899;50.748;7.102;2022-12-08T13:41:07;7.60;99.90
32446;DHT22;18899;50.748;7.102;2022-12-08T13:43:57;7.60;99.90
32446;DHT22;18899;50.748;7.102;2022-12-08T13:46:38;7.70;99.90
32446;DHT22;18899;50.748;7.102;2022-12-08T13:49:06;7.50;99.90
32446;DHT22;18899;50.748;7.102;2022-12-08T13:51:41;7.60;99.90
32446;DHT22;18899;50.748;7.102;2022-12-08T13:54:35;7.40;99.90
32446;DHT22;18899;50.748;7.102;2022-12-08T13:57:06;7.30;99.90
32446;DHT22;18899;50.748;7.102;2022-12-08T13:59:33;7.20;99.90
32446;DHT22;18899;50.748;7.102;2022-12-08T14:04:50;7.10;99.90
32446;DHT22;18899;50.748;7.102;2022-12-08T14:07:16;7.40;99.90
32446;DHT22;18899;50.748;7.102;2022-12-08T14:09:42;7.40;99.90
32446;DHT22;18899;50.748;7.102;2022-12-08T14:12:19;7.30;99.90
32446;DHT22;18899;50.748;7.102;2022-12-08T14:14:47;7.30;99.90
32446;DHT22;18899;50.748;7.102;2022-12-08T14:17:15;7.40;99.90
32446;DHT22;18899;50.748;7.102;2022-12-08T14:19:44;7.30;99.90
32446;DHT22;18899;50.748;7.102;2022-12-08T14:22:11;7.20;99.90
32446;DHT22;18899;50.748;7.102;2022-12-08T14:24:38;7.10;99.90
32446;DHT22;18899;50.748;7.102;2022-12-08T14:27:06;7.20;99.90
32446;DHT22;18899;50.748;7.102;2022-12-08T14:29:41;7.20;99.90
32446;DHT22;18899;50.748;7.102;2022-12-08T14:32:33;7.10;99.90
32446;DHT22;18899;50.748;7.102;2022-12-08T14:35:10;7.10;99.90
32446;DHT22;18899;50.748;7.102;2022-12-08T14:37:47;7.30;99.90
32446;DHT22;18899;50.748;7.102;2022-12-08T14:40:22;7.20;99.90
32446;DHT22;18899;50.748;7.102;2022-12-08T14:48:24;7.20;99.90
32446;DHT22;18899;50.748;7.102;2022-12-08T14:56:26;7.20;99.90
32446;DHT22;18899;50.748;7.102;2022-12-08T15:01:36;7.30;99.90
32446;DHT22;18899;50.748;7.102;2022-12-08T15:04:12;7.30;99.90
32446;DHT22;18899;50.748;7.102;2022-12-08T15:06:49;7.10;99.90
32446;DHT22;18899;50.748;7.102;2022-12-08T15:09:29;7.00;99.90
32446;DHT22;18899;50.748;7.102;2022-12-08T15:12:02;7.20;99.90
32446;DHT22;18899;50.748;7.102;2022-12-08T15:14:34;7.00;99.90
32446;DHT22;18899;50.748;7.102;2022-12-08T15:17:01;7.00;99.90
32446;DHT22;18899;50.748;7.102;2022-12-08T15:19:32;7.10;99.90
32446;DHT22;18899;50.748;7.102;2022-12-08T15:22:08;6.90;99.90
32446;DHT22;18899;50.748;7.102;2022-12-08T15:24:36;6.70;99.90
32446;DHT22;18899;50.748;7.102;2022-12-08T15:27:02;6.60;99.90
32446;DHT22;18899;50.748;7.102;2022-12-08T15:29:29;6.70;99.90
32446;DHT22;18899;50.748;7.102;2022-12-08T15:31:59;6.50;99.90
32446;DHT22;18899;50.748;7.102;2022-12-08T15:34:25;6.40;99.90
32446;DHT22;18899;50.748;7.102;2022-12-08T15:36:52;6.40;99.90
32446;DHT22;18899;50.748;7.102;2022-12-08T15:39:30;6.30;99.90
32446;DHT22;18899;50.748;7.102;2022-12-08T15:41:57;6.20;99.90
32446;DHT22;18899;50.748;7.102;2022-12-08T15:44:23;6.20;99.90
32446;DHT22;18899;50.748;7.102;2022-12-08T15:46:49;6.30;99.90
32446;DHT22;18899;50.748;7.102;2022-12-08T15:49:20;6.30;99.90
32446;DHT22;18899;50.748;7.102;2022-12-08T15:51:46;6.30;99.90
32446;DHT22;18899;50.748;7.102;2022-12-08T15:54:13;6.20;99.90
32446;DHT22;18899;50.748;7.102;2022-12-08T15:56:44;6.20;99.90
32446;DHT22;18899;50.748;7.102;2022-12-08T15:59:17;6.20;99.90
32446;DHT22;18899;50.748;7.102;2022-12-08T16:01:43;6.20;99.90
32446;DHT22;18899;50.748;7.102;2022-12-08T16:04:13;6.20;99.90
32446;DHT22;18899;50.748;7.102;2022-12-08T16:06:40;6.10;99.90
32446;DHT22;18899;50.748;7.102;2022-12-08T16:11:41;6.30;99.90
32446;DHT22;18899;50.748;7.102;2022-12-08T16:14:27;6.10;99.90
32446;DHT22;18899;50.748;7.102;2022-12-08T16:16:52;6.00;99.90
32446;DHT22;18899;50.748;7.102;2022-12-08T16:19:18;6.10;99.90
32446;DHT22;18899;50.748;7.102;2022-12-08T16:21:44;6.10;99.90
32446;DHT22;18899;50.748;7.102;2022-12-08T16:24:09;6.20;99.90
32446;DHT22;18899;50.748;7.102;2022-12-08T16:26:35;6.40;99.90
32446;DHT22;18899;50.748;7.102;2022-12-08T16:29:00;6.20;99.90
32446;DHT22;18899;50.748;7.102;2022-12-08T16:31:26;6.30;99.90
32446;DHT22;18899;50.748;7.102;2022-12-08T16:33:52;6.40;99.90
32446;DHT22;18899;50.748;7.102;2022-12-08T16:36:17;6.40;99.90
32446;DHT22;18899;50.748;7.102;2022-12-08T16:38:43;6.20;99.90
32446;DHT22;18899;50.748;7.102;2022-12-08T16:41:16;6.20;99.90
32446;DHT22;18899;50.748;7.102;2022-12-08T16:44:01;6.20;99.90
32446;DHT22;18899;50.748;7.102;2022-12-08T16:46:27;6.10;99.90
32446;DHT22;18899;50.748;7.102;2022-12-08T16:48:53;5.90;99.90
32446;DHT22;18899;50.748;7.102;2022-12-08T16:51:20;6.00;99.90
32446;DHT22;18899;50.748;7.102;2022-12-08T16:53:45;5.80;99.90
32446;DHT22;18899;50.748;7.102;2022-12-08T16:56:15;5.80;99.90
32446;DHT22;18899;50.748;7.102;2022-12-08T16:58:42;5.80;99.90
32446;DHT22;18899;50.748;7.102;2022-12-08T17:01:12;5.90;99.90
32446;DHT22;18899;50.748;7.102;2022-12-08T17:03:39;5.80;99.90
32446;DHT22;18899;50.748;7.102;2022-12-08T17:06:13;5.90;99.90
32446;DHT22;18899;50.748;7.102;2022-12-08T17:08:40;5.80;99.90
32446;DHT22;18899;50.748;7.102;2022-12-08T17:11:07;5.80;99.90
32446;DHT22;18899;50.748;7.102;2022-12-08T17:13:37;5.60;99.90
32446;DHT22;18899;50.748;7.102;2022-12-08T17:16:09;5.60;99.90
32446;DHT22;18899;50.748;7.102;2022-12-08T17:18:35;5.60;99.90
32446;DHT22;18899;50.748;7.102;2022-12-08T17:21:00;5.40;99.90
32446;DHT22;18899;50.748;7.102;2022-12-08T17:23:26;5.20;99.90
32446;DHT22;18899;50.748;7.102;2022-12-08T17:26:01;5.10;99.90
32446;DHT22;18899;50.748;7.102;2022-12-08T17:28:27;5.00;99.90
32446;DHT22;18899;50.748;7.102;2022-12-08T17:30:53;5.00;99.90
32446;DHT22;18899;50.748;7.102;2022-12-08T17:33:19;5.10;99.90
32446;DHT22;18899;50.748;7.102;2022-12-08T17:35:50;5.20;99.90
32446;DHT22;18899;50.748;7.102;2022-12-08T17:38:17;5.10;99.90
32446;DHT22;18899;50.748;7.102;2022-12-08T17:40:44;5.10;99.90